sensor_id;sensor_type;location;lat;lon;timestamp;P1;durP1;ratioP1;P2;durP2;ratioP2
55025;SDS011;40925;45.666;18.994;2023-06-14T00:02:09;10.13;;;5.47;;
55025;SDS011;40925;45.666;18.994;2023-06-14T00:04:35;9.90;;;5.53;;
55025;SDS011;40925;45.666;18.994;2023-06-14T00:07:03;7.20;;;5.15;;
55025;SDS011;40925;45.666;18.994;2023-06-14T00:09:33;8.80;;;5.40;;
55025;SDS011;40925;45.666;18.994;2023-06-14T00:11:59;7.97;;;5.55;;
55025;SDS011;40925;45.666;18.994;2023-06-14T00:14:25;7.35;;;5.68;;
55025;SDS011;40925;45.666;18.994;2023-06-14T00:16:51;8.85;;;5.88;;
55025;SDS011;40925;45.666;18.994;2023-06-14T00:19:18;8.02;;;5.38;;
55025;SDS011;40925;45.666;18.994;2023-06-14T00:21:45;13.70;;;5.82;;
55025;SDS011;40925;45.666;18.994;2023-06-14T00:24:11;8.07;;;5.50;;
55025;SDS011;40925;45.666;18.994;2023-06-14T00:26:37;9.68;;;6.35;;
55025;SDS011;40925;45.666;18.994;2023-06-14T00:29:03;9.63;;;6.10;;
55025;SDS011;40925;45.666;18.994;2023-06-14T00:31:30;10.18;;;6.25;;
55025;SDS011;40925;45.666;18.994;2023-06-14T00:33:57;8.32;;;5.65;;
55025;SDS011;40925;45.666;18.994;2023-06-14T00:36:23;9.80;;;6.03;;
55025;SDS011;40925;45.666;18.994;2023-06-14T00:38:49;11.90;;;5.85;;
55025;SDS011;40925;45.666;18.994;2023-06-14T00:41:15;8.43;;;5.40;;
55025;SDS011;40925;45.666;18.994;2023-06-14T00:43:41;6.97;;;5.43;;
55025;SDS011;40925;45.666;18.994;2023-06-14T00:46:07;7.13;;;5.60;;
55025;SDS011;40925;45.666;18.994;2023-06-14T00:48:33;10.95;;;5.50;;
55025;SDS011;40925;45.666;18.994;2023-06-14T00:51:00;7.75;;;5.40;;
55025;SDS011;40925;45.666;18.994;2023-06-14T00:53:29;11.80;;;5.40;;
55025;SDS011;40925;45.666;18.994;2023-06-14T00:55:56;8.20;;;5.15;;
55025;SDS011;40925;45.666;18.994;2023-06-14T00:58:22;8.20;;;4.80;;
55025;SDS011;40925;45.666;18.994;2023-06-14T01:00:48;8.25;;;5.40;;
55025;SDS011;40925;45.666;18.994;2023-06-14T01:03:16;9.98;;;6.15;;
55025;SDS011;40925;45.666;18.994;2023-06-14T01:05:48;8.75;;;6.03;;
55025;SDS011;40925;45.666;18.994;2023-06-14T01:08:20;9.32;;;6.03;;
55025;SDS011;40925;45.666;18.994;2023-06-14T01:15:53;7.78;;;5.40;;
55025;SDS011;40925;45.666;18.994;2023-06-14T01:18:20;7.82;;;5.50;;
55025;SDS011;40925;45.666;18.994;2023-06-14T01:20:46;8.40;;;5.55;;
55025;SDS011;40925;45.666;18.994;2023-06-14T01:23:19;7.80;;;5.40;;
55025;SDS011;40925;45.666;18.994;2023-06-14T01:25:46;8.77;;;5.55;;
55025;SDS011;40925;45.666;18.994;2023-06-14T01:28:12;11.18;;;5.30;;
55025;SDS011;40925;45.666;18.994;2023-06-14T01:30:43;7.20;;;5.13;;
55025;SDS011;40925;45.666;18.994;2023-06-14T01:33:19;9.27;;;5.50;;
55025;SDS011;40925;45.666;18.994;2023-06-14T01:35:46;10.52;;;8.38;;
55025;SDS011;40925;45.666;18.994;2023-06-14T01:38:12;10.75;;;8.60;;
55025;SDS011;40925;45.666;18.994;2023-06-14T01:40:39;10.40;;;6.85;;
55025;SDS011;40925;45.666;18.994;2023-06-14T01:43:06;7.60;;;5.50;;
55025;SDS011;40925;45.666;18.994;2023-06-14T01:45:32;8.30;;;5.88;;
55025;SDS011;40925;45.666;18.994;2023-06-14T01:47:59;9.05;;;5.20;;
55025;SDS011;40925;45.666;18.994;2023-06-14T01:50:29;8.85;;;5.80;;
55025;SDS011;40925;45.666;18.994;2023-06-14T01:52:56;9.52;;;5.88;;
55025;SDS011;40925;45.666;18.994;2023-06-14T01:55:22;10.82;;;5.78;;
55025;SDS011;40925;45.666;18.994;2023-06-14T01:57:49;8.88;;;6.13;;
55025;SDS011;40925;45.666;18.994;2023-06-14T02:00:16;10.45;;;6.10;;
55025;SDS011;40925;45.666;18.994;2023-06-14T02:02:43;9.77;;;5.70;;
55025;SDS011;40925;45.666;18.994;2023-06-14T02:05:09;10.32;;;6.03;;
55025;SDS011;40925;45.666;18.994;2023-06-14T02:07:36;10.10;;;5.60;;
55025;SDS011;40925;45.666;18.994;2023-06-14T02:10:03;10.82;;;5.78;;
55025;SDS011;40925;45.666;18.994;2023-06-14T02:12:29;10.10;;;5.60;;
55025;SDS011;40925;45.666;18.994;2023-06-14T02:14:55;9.05;;;5.53;;
55025;SDS011;40925;45.666;18.994;2023-06-14T02:17:21;11.43;;;6.22;;
55025;SDS011;40925;45.666;18.994;2023-06-14T02:19:47;9.35;;;6.35;;
55025;SDS011;40925;45.666;18.994;2023-06-14T02:22:14;10.13;;;5.65;;
55025;SDS011;40925;45.666;18.994;2023-06-14T02:24:41;11.60;;;6.10;;
55025;SDS011;40925;45.666;18.994;2023-06-14T02:27:07;8.98;;;6.38;;
55025;SDS011;40925;45.666;18.994;2023-06-14T02:29:35;8.68;;;6.07;;
55025;SDS011;40925;45.666;18.994;2023-06-14T02:32:01;8.65;;;5.82;;
55025;SDS011;40925;45.666;18.994;2023-06-14T02:34:27;13.23;;;6.10;;
55025;SDS011;40925;45.666;18.994;2023-06-14T02:36:53;10.48;;;6.20;;
55025;SDS011;40925;45.666;18.994;2023-06-14T02:39:20;10.82;;;6.25;;
55025;SDS011;40925;45.666;18.994;2023-06-14T02:41:48;10.30;;;5.95;;
55025;SDS011;40925;45.666;18.994;2023-06-14T02:44:15;8.75;;;6.13;;
55025;SDS011;40925;45.666;18.994;2023-06-14T02:46:43;9.82;;;6.20;;
55025;SDS011;40925;45.666;18.994;2023-06-14T02:49:10;11.38;;;6.07;;
55025;SDS011;40925;45.666;18.994;2023-06-14T02:51:36;9.02;;;5.88;;
55025;SDS011;40925;45.666;18.994;2023-06-14T02:54:02;8.25;;;6.30;;
55025;SDS011;40925;45.666;18.994;2023-06-14T02:56:28;11.07;;;6.47;;
55025;SDS011;40925;45.666;18.994;2023-06-14T02:58:55;10.68;;;6.45;;
55025;SDS011;40925;45.666;18.994;2023-06-14T03:01:22;12.63;;;6.72;;
55025;SDS011;40925;45.666;18.994;2023-06-14T03:03:48;9.18;;;5.80;;
55025;SDS011;40925;45.666;18.994;2023-06-14T03:06:14;9.10;;;6.13;;
55025;SDS011;40925;45.666;18.994;2023-06-14T03:08:41;10.82;;;6.30;;
55025;SDS011;40925;45.666;18.994;2023-06-14T03:11:08;12.57;;;6.43;;
55025;SDS011;40925;45.666;18.994;2023-06-14T03:13:35;10.90;;;6.32;;
55025;SDS011;40925;45.666;18.994;2023-06-14T03:16:02;11.82;;;6.22;;
55025;SDS011;40925;45.666;18.994;2023-06-14T03:18:31;12.23;;;6.00;;
55025;SDS011;40925;45.666;18.994;2023-06-14T03:21:00;10.57;;;6.40;;
55025;SDS011;40925;45.666;18.994;2023-06-14T03:23:26;9.73;;;6.18;;
55025;SDS011;40925;45.666;18.994;2023-06-14T03:25:52;10.25;;;6.07;;
55025;SDS011;40925;45.666;18.994;2023-06-14T03:28:18;9.18;;;6.25;;
55025;SDS011;40925;45.666;18.994;2023-06-14T03:30:45;9.18;;;6.30;;
55025;SDS011;40925;45.666;18.994;2023-06-14T03:33:11;11.63;;;6.38;;
55025;SDS011;40925;45.666;18.994;2023-06-14T03:35:37;8.30;;;6.03;;
55025;SDS011;40925;45.666;18.994;2023-06-14T03:38:03;9.73;;;6.40;;
55025;SDS011;40925;45.666;18.994;2023-06-14T03:40:29;12.32;;;5.70;;
55025;SDS011;40925;45.666;18.994;2023-06-14T03:42:56;13.32;;;5.88;;
55025;SDS011;40925;45.666;18.994;2023-06-14T03:45:22;11.13;;;6.03;;
55025;SDS011;40925;45.666;18.994;2023-06-14T03:47:48;8.57;;;6.30;;
55025;SDS011;40925;45.666;18.994;2023-06-14T03:50:15;13.35;;;6.18;;
55025;SDS011;40925;45.666;18.994;2023-06-14T03:52:41;10.93;;;6.20;;
55025;SDS011;40925;45.666;18.994;2023-06-14T03:55:08;10.98;;;6.35;;
55025;SDS011;40925;45.666;18.994;2023-06-14T03:57:35;10.57;;;6.40;;
55025;SDS011;40925;45.666;18.994;2023-06-14T04:00:01;9.40;;;6.30;;
55025;SDS011;40925;45.666;18.994;2023-06-14T04:02:30;10.25;;;6.25;;
55025;SDS011;40925;45.666;18.994;2023-06-14T04:04:56;10.90;;;6.05;;
55025;SDS011;40925;45.666;18.994;2023-06-14T04:07:22;11.38;;;5.95;;
55025;SDS011;40925;45.666;18.994;2023-06-14T04:09:50;11.52;;;6.25;;
55025;SDS011;40925;45.666;18.994;2023-06-14T04:12:16;11.13;;;6.30;;
55025;SDS011;40925;45.666;18.994;2023-06-14T04:14:42;9.07;;;6.35;;
55025;SDS011;40925;45.666;18.994;2023-06-14T04:17:08;9.45;;;6.80;;
55025;SDS011;40925;45.666;18.994;2023-06-14T04:19:34;8.32;;;6.07;;
55025;SDS011;40925;45.666;18.994;2023-06-14T04:22:01;9.55;;;5.63;;
55025;SDS011;40925;45.666;18.994;2023-06-14T04:24:27;10.23;;;6.20;;
55025;SDS011;40925;45.666;18.994;2023-06-14T04:26:59;10.23;;;6.07;;
55025;SDS011;40925;45.666;18.994;2023-06-14T04:29:29;13.35;;;6.20;;
55025;SDS011;40925;45.666;18.994;2023-06-14T04:31:56;10.70;;;6.20;;
55025;SDS011;40925;45.666;18.994;2023-06-14T04:34:26;8.90;;;6.18;;
55025;SDS011;40925;45.666;18.994;2023-06-14T04:36:58;8.20;;;5.68;;
55025;SDS011;40925;45.666;18.994;2023-06-14T04:39:26;13.23;;;6.47;;
55025;SDS011;40925;45.666;18.994;2023-06-14T04:41:52;10.35;;;6.03;;
55025;SDS011;40925;45.666;18.994;2023-06-14T04:44:22;9.35;;;6.00;;
55025;SDS011;40925;45.666;18.994;2023-06-14T04:46:56;8.43;;;5.85;;
55025;SDS011;40925;45.666;18.994;2023-06-14T04:49:23;9.77;;;6.28;;
55025;SDS011;40925;45.666;18.994;2023-06-14T04:51:52;9.68;;;6.05;;
55025;SDS011;40925;45.666;18.994;2023-06-14T04:54:24;8.45;;;5.90;;
55025;SDS011;40925;45.666;18.994;2023-06-14T04:56:50;9.30;;;6.43;;
55025;SDS011;40925;45.666;18.994;2023-06-14T04:59:18;9.40;;;6.00;;
55025;SDS011;40925;45.666;18.994;2023-06-14T05:01:44;10.20;;;5.88;;
55025;SDS011;40925;45.666;18.994;2023-06-14T05:04:16;8.15;;;5.93;;
55025;SDS011;40925;45.666;18.994;2023-06-14T05:06:43;7.22;;;5.50;;
55025;SDS011;40925;45.666;18.994;2023-06-14T05:09:15;8.63;;;5.35;;
55025;SDS011;40925;45.666;18.994;2023-06-14T05:11:44;8.10;;;5.50;;
55025;SDS011;40925;45.666;18.994;2023-06-14T05:14:12;9.80;;;5.60;;
55025;SDS011;40925;45.666;18.994;2023-06-14T05:16:38;10.23;;;5.55;;
55025;SDS011;40925;45.666;18.994;2023-06-14T05:19:05;7.85;;;5.13;;
55025;SDS011;40925;45.666;18.994;2023-06-14T05:21:31;10.02;;;5.50;;
55025;SDS011;40925;45.666;18.994;2023-06-14T05:23:58;9.07;;;5.63;;
55025;SDS011;40925;45.666;18.994;2023-06-14T05:26:25;11.02;;;5.78;;
55025;SDS011;40925;45.666;18.994;2023-06-14T05:28:56;6.82;;;5.30;;
55025;SDS011;40925;45.666;18.994;2023-06-14T05:31:23;10.00;;;5.32;;
55025;SDS011;40925;45.666;18.994;2023-06-14T05:33:49;8.40;;;5.10;;
55025;SDS011;40925;45.666;18.994;2023-06-14T05:36:15;9.45;;;5.07;;
55025;SDS011;40925;45.666;18.994;2023-06-14T05:38:41;9.63;;;5.00;;
55025;SDS011;40925;45.666;18.994;2023-06-14T05:41:07;7.55;;;4.95;;
55025;SDS011;40925;45.666;18.994;2023-06-14T05:43:33;9.32;;;4.68;;
55025;SDS011;40925;45.666;18.994;2023-06-14T05:45:59;6.50;;;5.00;;
55025;SDS011;40925;45.666;18.994;2023-06-14T05:48:25;9.02;;;5.00;;
55025;SDS011;40925;45.666;18.994;2023-06-14T05:50:52;6.35;;;4.65;;
55025;SDS011;40925;45.666;18.994;2023-06-14T05:53:18;5.93;;;4.28;;
55025;SDS011;40925;45.666;18.994;2023-06-14T05:55:44;5.85;;;4.30;;
55025;SDS011;40925;45.666;18.994;2023-06-14T05:58:10;11.65;;;4.57;;
55025;SDS011;40925;45.666;18.994;2023-06-14T06:00:38;8.85;;;4.63;;
55025;SDS011;40925;45.666;18.994;2023-06-14T06:03:04;7.63;;;4.13;;
55025;SDS011;40925;45.666;18.994;2023-06-14T06:05:33;9.15;;;4.30;;
55025;SDS011;40925;45.666;18.994;2023-06-14T06:07:59;8.55;;;3.88;;
55025;SDS011;40925;45.666;18.994;2023-06-14T06:10:25;7.72;;;4.43;;
55025;SDS011;40925;45.666;18.994;2023-06-14T06:12:51;7.20;;;4.50;;
55025;SDS011;40925;45.666;18.994;2023-06-14T06:15:19;9.18;;;4.20;;
55025;SDS011;40925;45.666;18.994;2023-06-14T06:17:45;6.35;;;4.10;;
55025;SDS011;40925;45.666;18.994;2023-06-14T06:20:12;6.55;;;4.20;;
55025;SDS011;40925;45.666;18.994;2023-06-14T06:22:38;7.47;;;4.75;;
55025;SDS011;40925;45.666;18.994;2023-06-14T06:25:04;7.63;;;4.60;;
55025;SDS011;40925;45.666;18.994;2023-06-14T06:27:31;8.73;;;4.82;;
55025;SDS011;40925;45.666;18.994;2023-06-14T06:29:57;8.88;;;4.03;;
55025;SDS011;40925;45.666;18.994;2023-06-14T06:32:25;6.28;;;4.22;;
55025;SDS011;40925;45.666;18.994;2023-06-14T06:34:51;8.38;;;5.80;;
55025;SDS011;40925;45.666;18.994;2023-06-14T06:37:17;6.68;;;5.75;;
55025;SDS011;40925;45.666;18.994;2023-06-14T06:39:42;8.50;;;4.90;;
55025;SDS011;40925;45.666;18.994;2023-06-14T06:42:08;8.70;;;6.72;;
55025;SDS011;40925;45.666;18.994;2023-06-14T06:44:35;11.30;;;8.13;;
55025;SDS011;40925;45.666;18.994;2023-06-14T06:47:01;7.85;;;4.90;;
55025;SDS011;40925;45.666;18.994;2023-06-14T06:49:27;5.90;;;5.00;;
55025;SDS011;40925;45.666;18.994;2023-06-14T06:52:03;6.53;;;5.90;;
55025;SDS011;40925;45.666;18.994;2023-06-14T06:54:30;8.88;;;6.35;;
55025;SDS011;40925;45.666;18.994;2023-06-14T06:56:56;7.25;;;5.38;;
55025;SDS011;40925;45.666;18.994;2023-06-14T06:59:22;8.95;;;8.20;;
55025;SDS011;40925;45.666;18.994;2023-06-14T07:01:48;11.90;;;10.88;;
55025;SDS011;40925;45.666;18.994;2023-06-14T07:04:14;13.13;;;11.85;;
55025;SDS011;40925;45.666;18.994;2023-06-14T07:06:41;39.08;;;35.83;;
55025;SDS011;40925;45.666;18.994;2023-06-14T07:09:07;14.90;;;13.30;;
55025;SDS011;40925;45.666;18.994;2023-06-14T07:11:37;49.65;;;46.03;;
55025;SDS011;40925;45.666;18.994;2023-06-14T07:14:03;24.73;;;23.13;;
55025;SDS011;40925;45.666;18.994;2023-06-14T07:16:29;29.92;;;27.88;;
55025;SDS011;40925;45.666;18.994;2023-06-14T07:18:55;34.75;;;32.38;;
55025;SDS011;40925;45.666;18.994;2023-06-14T07:21:21;33.72;;;31.55;;
55025;SDS011;40925;45.666;18.994;2023-06-14T07:23:47;60.67;;;56.85;;
55025;SDS011;40925;45.666;18.994;2023-06-14T07:26:13;74.25;;;69.20;;
55025;SDS011;40925;45.666;18.994;2023-06-14T07:28:40;67.78;;;63.30;;
55025;SDS011;40925;45.666;18.994;2023-06-14T07:31:10;89.90;;;84.35;;
55025;SDS011;40925;45.666;18.994;2023-06-14T07:33:36;101.88;;;94.80;;
55025;SDS011;40925;45.666;18.994;2023-06-14T07:36:02;118.05;;;110.22;;
55025;SDS011;40925;45.666;18.994;2023-06-14T07:38:28;97.22;;;90.65;;
55025;SDS011;40925;45.666;18.994;2023-06-14T07:40:54;99.43;;;93.05;;
55025;SDS011;40925;45.666;18.994;2023-06-14T07:43:19;70.90;;;66.32;;
55025;SDS011;40925;45.666;18.994;2023-06-14T07:45:45;102.35;;;95.72;;
55025;SDS011;40925;45.666;18.994;2023-06-14T07:48:11;116.95;;;109.78;;
55025;SDS011;40925;45.666;18.994;2023-06-14T07:50:37;128.65;;;119.75;;
55025;SDS011;40925;45.666;18.994;2023-06-14T07:53:02;112.35;;;105.22;;
55025;SDS011;40925;45.666;18.994;2023-06-14T07:55:28;183.50;;;169.00;;
55025;SDS011;40925;45.666;18.994;2023-06-14T07:57:54;141.35;;;131.93;;
55025;SDS011;40925;45.666;18.994;2023-06-14T08:00:20;147.25;;;137.55;;
55025;SDS011;40925;45.666;18.994;2023-06-14T08:02:45;177.15;;;164.15;;
55025;SDS011;40925;45.666;18.994;2023-06-14T08:05:11;213.40;;;197.13;;
55025;SDS011;40925;45.666;18.994;2023-06-14T08:07:38;183.93;;;170.15;;
55025;SDS011;40925;45.666;18.994;2023-06-14T08:10:05;255.70;;;237.35;;
55025;SDS011;40925;45.666;18.994;2023-06-14T08:12:31;241.30;;;223.30;;
55025;SDS011;40925;45.666;18.994;2023-06-14T08:14:57;234.70;;;217.07;;
55025;SDS011;40925;45.666;18.994;2023-06-14T08:17:23;223.63;;;207.88;;
55025;SDS011;40925;45.666;18.994;2023-06-14T08:19:50;173.93;;;161.45;;
55025;SDS011;40925;45.666;18.994;2023-06-14T08:22:15;212.38;;;195.75;;
55025;SDS011;40925;45.666;18.994;2023-06-14T08:24:43;213.82;;;196.70;;
55025;SDS011;40925;45.666;18.994;2023-06-14T08:27:11;274.33;;;253.50;;
55025;SDS011;40925;45.666;18.994;2023-06-14T08:29:41;216.60;;;200.25;;
55025;SDS011;40925;45.666;18.994;2023-06-14T08:32:07;245.23;;;226.63;;
55025;SDS011;40925;45.666;18.994;2023-06-14T08:34:33;243.43;;;224.80;;
55025;SDS011;40925;45.666;18.994;2023-06-14T08:36:59;232.55;;;215.38;;
55025;SDS011;40925;45.666;18.994;2023-06-14T08:39:26;225.88;;;209.20;;
55025;SDS011;40925;45.666;18.994;2023-06-14T08:41:52;216.07;;;200.40;;
55025;SDS011;40925;45.666;18.994;2023-06-14T08:44:18;234.95;;;218.25;;
55025;SDS011;40925;45.666;18.994;2023-06-14T08:46:45;212.23;;;196.02;;
55025;SDS011;40925;45.666;18.994;2023-06-14T08:49:12;230.57;;;213.65;;
55025;SDS011;40925;45.666;18.994;2023-06-14T08:51:39;224.38;;;207.98;;
55025;SDS011;40925;45.666;18.994;2023-06-14T08:54:05;238.13;;;220.95;;
55025;SDS011;40925;45.666;18.994;2023-06-14T08:56:32;262.50;;;242.60;;
55025;SDS011;40925;45.666;18.994;2023-06-14T08:58:59;239.15;;;220.90;;
55025;SDS011;40925;45.666;18.994;2023-06-14T09:01:34;224.90;;;208.02;;
55025;SDS011;40925;45.666;18.994;2023-06-14T09:04:02;243.75;;;225.77;;
55025;SDS011;40925;45.666;18.994;2023-06-14T09:06:30;212.38;;;197.93;;
55025;SDS011;40925;45.666;18.994;2023-06-14T09:08:56;249.15;;;231.57;;
55025;SDS011;40925;45.666;18.994;2023-06-14T09:11:23;228.85;;;212.65;;
55025;SDS011;40925;45.666;18.994;2023-06-14T09:13:49;199.80;;;185.50;;
55025;SDS011;40925;45.666;18.994;2023-06-14T09:16:15;234.00;;;216.65;;
55025;SDS011;40925;45.666;18.994;2023-06-14T09:18:42;211.90;;;196.07;;
55025;SDS011;40925;45.666;18.994;2023-06-14T09:21:09;240.88;;;222.93;;
55025;SDS011;40925;45.666;18.994;2023-06-14T09:23:39;211.35;;;196.13;;
55025;SDS011;40925;45.666;18.994;2023-06-14T09:26:15;196.20;;;181.80;;
55025;SDS011;40925;45.666;18.994;2023-06-14T09:28:47;184.35;;;170.65;;
55025;SDS011;40925;45.666;18.994;2023-06-14T09:31:14;198.82;;;184.25;;
55025;SDS011;40925;45.666;18.994;2023-06-14T09:33:47;213.60;;;197.82;;
55025;SDS011;40925;45.666;18.994;2023-06-14T09:36:17;217.82;;;201.90;;
55025;SDS011;40925;45.666;18.994;2023-06-14T09:38:56;196.25;;;181.93;;
55025;SDS011;40925;45.666;18.994;2023-06-14T09:41:38;199.00;;;184.48;;
55025;SDS011;40925;45.666;18.994;2023-06-14T09:44:08;212.18;;;196.77;;
55025;SDS011;40925;45.666;18.994;2023-06-14T09:46:35;220.20;;;204.77;;
55025;SDS011;40925;45.666;18.994;2023-06-14T09:49:02;221.65;;;206.25;;
55025;SDS011;40925;45.666;18.994;2023-06-14T09:51:28;199.23;;;184.63;;
55025;SDS011;40925;45.666;18.994;2023-06-14T09:54:01;244.57;;;226.35;;
55025;SDS011;40925;45.666;18.994;2023-06-14T09:56:32;223.77;;;207.05;;
55025;SDS011;40925;45.666;18.994;2023-06-14T09:59:02;246.52;;;228.48;;
55025;SDS011;40925;45.666;18.994;2023-06-14T10:01:32;235.32;;;218.13;;
55025;SDS011;40925;45.666;18.994;2023-06-14T10:04:05;260.17;;;241.13;;
55025;SDS011;40925;45.666;18.994;2023-06-14T10:06:35;232.60;;;215.93;;
55025;SDS011;40925;45.666;18.994;2023-06-14T10:09:03;225.00;;;209.23;;
55025;SDS011;40925;45.666;18.994;2023-06-14T10:11:32;223.20;;;207.07;;
55025;SDS011;40925;45.666;18.994;2023-06-14T10:14:00;222.38;;;205.98;;
55025;SDS011;40925;45.666;18.994;2023-06-14T10:21:43;210.48;;;195.20;;
55025;SDS011;40925;45.666;18.994;2023-06-14T10:24:14;218.95;;;202.82;;
55025;SDS011;40925;45.666;18.994;2023-06-14T10:26:54;204.10;;;189.18;;
55025;SDS011;40925;45.666;18.994;2023-06-14T10:29:20;200.57;;;186.23;;
55025;SDS011;40925;45.666;18.994;2023-06-14T10:31:47;216.35;;;201.18;;
55025;SDS011;40925;45.666;18.994;2023-06-14T10:34:24;192.82;;;179.43;;
55025;SDS011;40925;45.666;18.994;2023-06-14T10:37:01;170.43;;;158.98;;
55025;SDS011;40925;45.666;18.994;2023-06-14T10:39:32;201.93;;;188.23;;
55025;SDS011;40925;45.666;18.994;2023-06-14T10:42:04;176.82;;;164.35;;
55025;SDS011;40925;45.666;18.994;2023-06-14T10:47:07;189.13;;;176.45;;
55025;SDS011;40925;45.666;18.994;2023-06-14T10:52:13;226.07;;;210.30;;
55025;SDS011;40925;45.666;18.994;2023-06-14T10:57:29;155.82;;;145.30;;
55025;SDS011;40925;45.666;18.994;2023-06-14T10:59:57;202.38;;;188.43;;
55025;SDS011;40925;45.666;18.994;2023-06-14T11:02:29;177.43;;;165.57;;
55025;SDS011;40925;45.666;18.994;2023-06-14T11:05:10;221.43;;;207.05;;
55025;SDS011;40925;45.666;18.994;2023-06-14T11:13:08;180.60;;;168.13;;
55025;SDS011;40925;45.666;18.994;2023-06-14T11:15:37;201.85;;;187.57;;
55025;SDS011;40925;45.666;18.994;2023-06-14T11:18:07;201.43;;;187.43;;
55025;SDS011;40925;45.666;18.994;2023-06-14T11:20:36;196.73;;;183.45;;
55025;SDS011;40925;45.666;18.994;2023-06-14T11:23:03;171.02;;;159.75;;
55025;SDS011;40925;45.666;18.994;2023-06-14T11:25:29;206.05;;;191.50;;
55025;SDS011;40925;45.666;18.994;2023-06-14T11:27:55;203.05;;;189.07;;
55025;SDS011;40925;45.666;18.994;2023-06-14T11:30:22;212.95;;;197.77;;
55025;SDS011;40925;45.666;18.994;2023-06-14T11:32:48;199.80;;;186.43;;
55025;SDS011;40925;45.666;18.994;2023-06-14T11:35:15;185.70;;;173.60;;
55025;SDS011;40925;45.666;18.994;2023-06-14T11:37:42;162.23;;;151.32;;
55025;SDS011;40925;45.666;18.994;2023-06-14T11:40:09;180.18;;;168.50;;
55025;SDS011;40925;45.666;18.994;2023-06-14T11:42:37;180.10;;;168.50;;
55025;SDS011;40925;45.666;18.994;2023-06-14T11:45:10;181.25;;;169.93;;
55025;SDS011;40925;45.666;18.994;2023-06-14T11:47:38;170.52;;;159.20;;
55025;SDS011;40925;45.666;18.994;2023-06-14T11:50:08;222.98;;;208.10;;
55025;SDS011;40925;45.666;18.994;2023-06-14T11:52:35;208.98;;;194.70;;
55025;SDS011;40925;45.666;18.994;2023-06-14T11:55:01;222.38;;;207.27;;
55025;SDS011;40925;45.666;18.994;2023-06-14T11:57:34;199.68;;;186.27;;
55025;SDS011;40925;45.666;18.994;2023-06-14T12:00:04;191.60;;;178.93;;
55025;SDS011;40925;45.666;18.994;2023-06-14T12:02:37;202.25;;;189.30;;
55025;SDS011;40925;45.666;18.994;2023-06-14T12:05:07;200.30;;;187.27;;
55025;SDS011;40925;45.666;18.994;2023-06-14T12:07:36;176.13;;;164.45;;
55025;SDS011;40925;45.666;18.994;2023-06-14T12:12:34;155.27;;;144.75;;
55025;SDS011;40925;45.666;18.994;2023-06-14T12:15:02;120.55;;;112.97;;
55025;SDS011;40925;45.666;18.994;2023-06-14T12:17:33;121.47;;;113.68;;
55025;SDS011;40925;45.666;18.994;2023-06-14T12:20:04;145.85;;;135.95;;
55025;SDS011;40925;45.666;18.994;2023-06-14T12:25:34;123.60;;;115.85;;
55025;SDS011;40925;45.666;18.994;2023-06-14T12:28:04;130.55;;;122.45;;
55025;SDS011;40925;45.666;18.994;2023-06-14T12:30:31;126.35;;;118.25;;
55025;SDS011;40925;45.666;18.994;2023-06-14T12:32:57;143.57;;;133.82;;
55025;SDS011;40925;45.666;18.994;2023-06-14T12:35:22;126.65;;;118.63;;
55025;SDS011;40925;45.666;18.994;2023-06-14T12:37:48;133.82;;;125.22;;
55025;SDS011;40925;45.666;18.994;2023-06-14T12:40:14;138.35;;;129.27;;
55025;SDS011;40925;45.666;18.994;2023-06-14T12:42:40;116.72;;;109.38;;
55025;SDS011;40925;45.666;18.994;2023-06-14T12:45:06;126.47;;;118.40;;
55025;SDS011;40925;45.666;18.994;2023-06-14T12:47:36;134.45;;;125.93;;
55025;SDS011;40925;45.666;18.994;2023-06-14T12:50:02;110.95;;;104.03;;
55025;SDS011;40925;45.666;18.994;2023-06-14T12:52:28;105.95;;;99.35;;
55025;SDS011;40925;45.666;18.994;2023-06-14T12:55:01;113.78;;;106.78;;
55025;SDS011;40925;45.666;18.994;2023-06-14T12:57:28;119.15;;;111.72;;
55025;SDS011;40925;45.666;18.994;2023-06-14T12:59:54;127.43;;;118.85;;
55025;SDS011;40925;45.666;18.994;2023-06-14T13:02:20;129.85;;;121.40;;
55025;SDS011;40925;45.666;18.994;2023-06-14T13:04:50;132.02;;;123.40;;
55025;SDS011;40925;45.666;18.994;2023-06-14T13:07:24;134.85;;;125.90;;
55025;SDS011;40925;45.666;18.994;2023-06-14T13:09:50;138.98;;;129.68;;
55025;SDS011;40925;45.666;18.994;2023-06-14T13:12:16;127.43;;;119.07;;
55025;SDS011;40925;45.666;18.994;2023-06-14T13:14:41;143.40;;;134.13;;
55025;SDS011;40925;45.666;18.994;2023-06-14T13:19:54;135.52;;;127.10;;
55025;SDS011;40925;45.666;18.994;2023-06-14T13:22:20;135.20;;;126.47;;
55025;SDS011;40925;45.666;18.994;2023-06-14T13:24:46;130.65;;;122.35;;
55025;SDS011;40925;45.666;18.994;2023-06-14T13:27:12;119.53;;;111.82;;
55025;SDS011;40925;45.666;18.994;2023-06-14T13:29:39;122.03;;;114.38;;
55025;SDS011;40925;45.666;18.994;2023-06-14T13:32:06;120.28;;;112.82;;
55025;SDS011;40925;45.666;18.994;2023-06-14T13:34:32;112.85;;;105.72;;
55025;SDS011;40925;45.666;18.994;2023-06-14T13:36:57;128.50;;;120.28;;
55025;SDS011;40925;45.666;18.994;2023-06-14T13:39:29;109.63;;;102.68;;
55025;SDS011;40925;45.666;18.994;2023-06-14T13:41:55;113.57;;;106.28;;
55025;SDS011;40925;45.666;18.994;2023-06-14T13:44:21;122.18;;;114.10;;
55025;SDS011;40925;45.666;18.994;2023-06-14T13:46:47;121.72;;;114.00;;
55025;SDS011;40925;45.666;18.994;2023-06-14T13:49:13;122.68;;;114.80;;
55025;SDS011;40925;45.666;18.994;2023-06-14T13:51:39;125.03;;;116.93;;
55025;SDS011;40925;45.666;18.994;2023-06-14T13:54:05;121.97;;;114.05;;
55025;SDS011;40925;45.666;18.994;2023-06-14T13:56:31;120.50;;;112.72;;
55025;SDS011;40925;45.666;18.994;2023-06-14T13:58:57;122.65;;;114.75;;
55025;SDS011;40925;45.666;18.994;2023-06-14T14:01:24;125.82;;;117.22;;
55025;SDS011;40925;45.666;18.994;2023-06-14T14:03:50;130.48;;;121.70;;
55025;SDS011;40925;45.666;18.994;2023-06-14T14:06:16;121.65;;;113.70;;
55025;SDS011;40925;45.666;18.994;2023-06-14T14:08:42;139.25;;;129.68;;
55025;SDS011;40925;45.666;18.994;2023-06-14T14:11:08;116.95;;;109.45;;
55025;SDS011;40925;45.666;18.994;2023-06-14T14:13:35;120.65;;;112.85;;
55025;SDS011;40925;45.666;18.994;2023-06-14T14:16:01;121.50;;;113.63;;
55025;SDS011;40925;45.666;18.994;2023-06-14T14:18:28;125.25;;;117.07;;
55025;SDS011;40925;45.666;18.994;2023-06-14T14:20:54;125.57;;;116.05;;
55025;SDS011;40925;45.666;18.994;2023-06-14T14:23:21;114.78;;;107.63;;
55025;SDS011;40925;45.666;18.994;2023-06-14T14:25:47;110.15;;;102.80;;
55025;SDS011;40925;45.666;18.994;2023-06-14T14:28:13;128.88;;;120.68;;
55025;SDS011;40925;45.666;18.994;2023-06-14T14:30:41;127.93;;;119.38;;
55025;SDS011;40925;45.666;18.994;2023-06-14T14:33:07;117.60;;;109.78;;
55025;SDS011;40925;45.666;18.994;2023-06-14T14:35:33;110.43;;;103.28;;
55025;SDS011;40925;45.666;18.994;2023-06-14T14:37:59;112.30;;;105.18;;
55025;SDS011;40925;45.666;18.994;2023-06-14T14:40:25;121.35;;;113.63;;
55025;SDS011;40925;45.666;18.994;2023-06-14T14:42:51;112.10;;;105.10;;